sensor_id;sensor_type;location;lat;lon;timestamp;P1;durP1;ratioP1;P2;durP2;ratioP2
47772;SDS011;33534;51.028;13.716;2023-02-22T00:00:07;7.88;;;5.13;;
47772;SDS011;33534;51.028;13.716;2023-02-22T00:02:43;9.18;;;5.63;;
47772;SDS011;33534;51.028;13.716;2023-02-22T00:05:09;9.10;;;5.93;;
47772;SDS011;33534;51.028;13.716;2023-02-22T00:07:39;7.35;;;5.47;;
47772;SDS011;33534;51.028;13.716;2023-02-22T00:10:06;10.82;;;5.40;;
47772;SDS011;33534;51.028;13.716;2023-02-22T00:12:37;8.43;;;6.03;;
47772;SDS011;33534;51.028;13.716;2023-02-22T00:15:03;8.30;;;5.53;;
47772;SDS011;33534;51.028;13.716;2023-02-22T00:17:29;8.52;;;5.53;;
47772;SDS011;33534;51.028;13.716;2023-02-22T00:19:55;8.63;;;5.38;;
47772;SDS011;33534;51.028;13.716;2023-02-22T00:22:21;8.48;;;6.15;;
47772;SDS011;33534;51.028;13.716;2023-02-22T00:24:47;9.55;;;6.00;;
47772;SDS011;33534;51.028;13.716;2023-02-22T00:27:14;7.95;;;5.22;;
47772;SDS011;33534;51.028;13.716;2023-02-22T00:29:44;9.52;;;5.90;;
47772;SDS011;33534;51.028;13.716;2023-02-22T00:32:10;9.98;;;6.03;;
47772;SDS011;33534;51.028;13.716;2023-02-22T00:34:36;8.07;;;5.57;;
47772;SDS011;33534;51.028;13.716;2023-02-22T00:37:02;8.25;;;5.82;;
47772;SDS011;33534;51.028;13.716;2023-02-22T00:39:30;7.93;;;5.65;;
47772;SDS011;33534;51.028;13.716;2023-02-22T00:41:59;8.30;;;5.60;;
47772;SDS011;33534;51.028;13.716;2023-02-22T00:44:25;8.18;;;5.82;;
47772;SDS011;33534;51.028;13.716;2023-02-22T00:46:52;10.13;;;5.97;;
47772;SDS011;33534;51.028;13.716;2023-02-22T00:49:18;9.55;;;5.85;;
47772;SDS011;33534;51.028;13.716;2023-02-22T00:51:44;8.35;;;5.60;;
47772;SDS011;33534;51.028;13.716;2023-02-22T00:54:10;8.02;;;5.65;;
47772;SDS011;33534;51.028;13.716;2023-02-22T00:56:38;9.23;;;5.75;;
47772;SDS011;33534;51.028;13.716;2023-02-22T00:59:04;9.43;;;6.15;;
47772;SDS011;33534;51.028;13.716;2023-02-22T01:01:30;10.88;;;6.18;;
47772;SDS011;33534;51.028;13.716;2023-02-22T01:03:56;11.02;;;6.38;;
47772;SDS011;33534;51.028;13.716;2023-02-22T01:06:23;11.23;;;5.93;;
47772;SDS011;33534;51.028;13.716;2023-02-22T01:08:49;12.30;;;7.18;;
47772;SDS011;33534;51.028;13.716;2023-02-22T01:11:15;9.38;;;6.80;;
47772;SDS011;33534;51.028;13.716;2023-02-22T01:13:41;9.38;;;6.38;;
47772;SDS011;33534;51.028;13.716;2023-02-22T01:16:09;10.90;;;7.10;;
47772;SDS011;33534;51.028;13.716;2023-02-22T01:18:35;9.30;;;6.60;;
47772;SDS011;33534;51.028;13.716;2023-02-22T01:21:05;11.30;;;6.63;;
47772;SDS011;33534;51.028;13.716;2023-02-22T01:23:32;9.88;;;6.47;;
47772;SDS011;33534;51.028;13.716;2023-02-22T01:25:58;13.23;;;6.93;;
47772;SDS011;33534;51.028;13.716;2023-02-22T01:28:24;9.57;;;7.22;;
47772;SDS011;33534;51.028;13.716;2023-02-22T01:30:50;12.20;;;6.78;;
47772;SDS011;33534;51.028;13.716;2023-02-22T01:33:16;9.63;;;6.68;;
47772;SDS011;33534;51.028;13.716;2023-02-22T01:35:42;8.73;;;6.07;;
47772;SDS011;33534;51.028;13.716;2023-02-22T01:38:10;11.23;;;7.13;;
47772;SDS011;33534;51.028;13.716;2023-02-22T01:40:39;9.15;;;6.75;;
47772;SDS011;33534;51.028;13.716;2023-02-22T01:45:44;9.07;;;5.85;;
47772;SDS011;33534;51.028;13.716;2023-02-22T01:48:29;10.38;;;6.90;;
47772;SDS011;33534;51.028;13.716;2023-02-22T01:51:01;9.68;;;6.00;;
47772;SDS011;33534;51.028;13.716;2023-02-22T01:53:35;11.93;;;7.43;;
47772;SDS011;33534;51.028;13.716;2023-02-22T01:56:02;10.10;;;6.55;;
47772;SDS011;33534;51.028;13.716;2023-02-22T01:58:29;10.63;;;6.88;;
47772;SDS011;33534;51.028;13.716;2023-02-22T02:00:57;9.82;;;6.60;;
47772;SDS011;33534;51.028;13.716;2023-02-22T02:03:26;11.07;;;6.72;;
47772;SDS011;33534;51.028;13.716;2023-02-22T02:05:53;12.35;;;7.15;;
47772;SDS011;33534;51.028;13.716;2023-02-22T02:10:56;9.13;;;6.68;;
47772;SDS011;33534;51.028;13.716;2023-02-22T02:13:23;17.80;;;7.50;;
47772;SDS011;33534;51.028;13.716;2023-02-22T02:15:50;9.32;;;6.28;;
47772;SDS011;33534;51.028;13.716;2023-02-22T02:18:19;9.93;;;6.75;;
47772;SDS011;33534;51.028;13.716;2023-02-22T02:28:36;10.40;;;6.50;;
47772;SDS011;33534;51.028;13.716;2023-02-22T02:33:48;10.15;;;6.53;;
47772;SDS011;33534;51.028;13.716;2023-02-22T02:36:25;10.73;;;6.65;;
47772;SDS011;33534;51.028;13.716;2023-02-22T02:39:13;10.40;;;6.00;;
47772;SDS011;33534;51.028;13.716;2023-02-22T02:41:46;13.25;;;7.22;;
47772;SDS011;33534;51.028;13.716;2023-02-22T02:47:09;9.90;;;7.07;;
47772;SDS011;33534;51.028;13.716;2023-02-22T02:52:13;11.23;;;7.38;;
47772;SDS011;33534;51.028;13.716;2023-02-22T02:54:41;11.02;;;6.80;;
47772;SDS011;33534;51.028;13.716;2023-02-22T02:57:07;12.18;;;7.63;;
47772;SDS011;33534;51.028;13.716;2023-02-22T02:59:34;12.98;;;7.18;;
47772;SDS011;33534;51.028;13.716;2023-02-22T03:12:45;10.45;;;6.68;;
47772;SDS011;33534;51.028;13.716;2023-02-22T03:15:28;12.93;;;7.35;;
47772;SDS011;33534;51.028;13.716;2023-02-22T03:18:12;13.40;;;7.82;;
47772;SDS011;33534;51.028;13.716;2023-02-22T03:26:08;12.13;;;7.13;;
47772;SDS011;33534;51.028;13.716;2023-02-22T03:28:36;10.13;;;7.38;;
47772;SDS011;33534;51.028;13.716;2023-02-22T03:31:07;11.73;;;7.28;;
47772;SDS011;33534;51.028;13.716;2023-02-22T03:36:34;10.85;;;7.15;;
47772;SDS011;33534;51.028;13.716;2023-02-22T03:38:52;10.38;;;6.70;;
47772;SDS011;33534;51.028;13.716;2023-02-22T03:41:22;10.55;;;6.88;;
47772;SDS011;33534;51.028;13.716;2023-02-22T03:43:49;10.25;;;7.00;;
47772;SDS011;33534;51.028;13.716;2023-02-22T03:46:18;8.25;;;6.07;;
47772;SDS011;33534;51.028;13.716;2023-02-22T03:48:50;9.65;;;7.00;;
47772;SDS011;33534;51.028;13.716;2023-02-22T03:51:18;13.07;;;7.97;;
47772;SDS011;33534;51.028;13.716;2023-02-22T03:53:44;10.75;;;6.93;;
47772;SDS011;33534;51.028;13.716;2023-02-22T03:56:12;11.38;;;7.72;;
47772;SDS011;33534;51.028;13.716;2023-02-22T03:58:39;10.98;;;7.18;;
47772;SDS011;33534;51.028;13.716;2023-02-22T04:01:08;10.60;;;7.18;;
47772;SDS011;33534;51.028;13.716;2023-02-22T04:03:34;11.48;;;7.65;;
47772;SDS011;33534;51.028;13.716;2023-02-22T04:06:00;11.10;;;7.25;;
47772;SDS011;33534;51.028;13.716;2023-02-22T04:08:27;11.43;;;7.75;;
47772;SDS011;33534;51.028;13.716;2023-02-22T04:10:54;14.55;;;7.82;;
47772;SDS011;33534;51.028;13.716;2023-02-22T04:13:20;11.25;;;7.50;;
47772;SDS011;33534;51.028;13.716;2023-02-22T04:15:46;12.90;;;7.40;;
47772;SDS011;33534;51.028;13.716;2023-02-22T04:18:12;13.48;;;8.02;;
47772;SDS011;33534;51.028;13.716;2023-02-22T04:20:38;12.80;;;8.60;;
47772;SDS011;33534;51.028;13.716;2023-02-22T04:23:04;13.30;;;8.40;;
47772;SDS011;33534;51.028;13.716;2023-02-22T04:25:30;13.00;;;7.65;;
47772;SDS011;33534;51.028;13.716;2023-02-22T04:27:56;12.13;;;7.95;;
47772;SDS011;33534;51.028;13.716;2023-02-22T04:30:22;14.27;;;8.35;;
47772;SDS011;33534;51.028;13.716;2023-02-22T04:32:48;12.05;;;8.05;;
47772;SDS011;33534;51.028;13.716;2023-02-22T04:35:14;14.13;;;8.45;;
47772;SDS011;33534;51.028;13.716;2023-02-22T04:37:40;16.27;;;8.48;;
47772;SDS011;33534;51.028;13.716;2023-02-22T04:40:07;13.32;;;8.02;;
47772;SDS011;33534;51.028;13.716;2023-02-22T04:42:33;14.68;;;8.60;;
47772;SDS011;33534;51.028;13.716;2023-02-22T04:44:59;12.52;;;8.25;;
47772;SDS011;33534;51.028;13.716;2023-02-22T04:47:25;14.20;;;8.18;;
47772;SDS011;33534;51.028;13.716;2023-02-22T04:49:51;14.15;;;8.88;;
47772;SDS011;33534;51.028;13.716;2023-02-22T04:52:17;15.45;;;8.63;;
47772;SDS011;33534;51.028;13.716;2023-02-22T04:54:43;22.65;;;14.70;;
47772;SDS011;33534;51.028;13.716;2023-02-22T04:57:10;13.82;;;9.30;;
47772;SDS011;33534;51.028;13.716;2023-02-22T04:59:36;13.90;;;8.85;;
47772;SDS011;33534;51.028;13.716;2023-02-22T05:02:02;15.02;;;9.10;;
47772;SDS011;33534;51.028;13.716;2023-02-22T05:04:28;12.57;;;8.43;;
47772;SDS011;33534;51.028;13.716;2023-02-22T05:06:54;15.38;;;8.95;;
47772;SDS011;33534;51.028;13.716;2023-02-22T05:09:20;21.75;;;9.27;;
47772;SDS011;33534;51.028;13.716;2023-02-22T05:11:47;15.02;;;8.70;;
47772;SDS011;33534;51.028;13.716;2023-02-22T05:14:13;13.00;;;8.32;;
47772;SDS011;33534;51.028;13.716;2023-02-22T05:16:39;12.70;;;7.85;;
47772;SDS011;33534;51.028;13.716;2023-02-22T05:19:05;13.23;;;8.65;;
47772;SDS011;33534;51.028;13.716;2023-02-22T05:21:31;13.73;;;8.02;;
47772;SDS011;33534;51.028;13.716;2023-02-22T05:23:57;15.30;;;9.27;;
47772;SDS011;33534;51.028;13.716;2023-02-22T05:26:23;14.80;;;8.75;;
47772;SDS011;33534;51.028;13.716;2023-02-22T05:28:49;15.70;;;9.38;;
47772;SDS011;33534;51.028;13.716;2023-02-22T05:31:15;14.00;;;8.60;;
47772;SDS011;33534;51.028;13.716;2023-02-22T05:33:41;13.80;;;9.40;;
47772;SDS011;33534;51.028;13.716;2023-02-22T05:36:07;13.77;;;9.38;;
47772;SDS011;33534;51.028;13.716;2023-02-22T05:38:35;15.75;;;9.90;;
47772;SDS011;33534;51.028;13.716;2023-02-22T05:41:07;12.90;;;8.95;;
47772;SDS011;33534;51.028;13.716;2023-02-22T05:43:33;13.82;;;8.52;;
47772;SDS011;33534;51.028;13.716;2023-02-22T05:45:59;15.25;;;9.07;;
47772;SDS011;33534;51.028;13.716;2023-02-22T05:48:25;13.65;;;8.48;;
47772;SDS011;33534;51.028;13.716;2023-02-22T05:50:51;15.00;;;8.88;;
47772;SDS011;33534;51.028;13.716;2023-02-22T05:53:17;13.82;;;8.52;;
47772;SDS011;33534;51.028;13.716;2023-02-22T05:55:43;17.67;;;9.32;;
47772;SDS011;33534;51.028;13.716;2023-02-22T05:58:09;14.60;;;9.02;;
47772;SDS011;33534;51.028;13.716;2023-02-22T06:00:35;13.80;;;8.32;;
47772;SDS011;33534;51.028;13.716;2023-02-22T06:03:05;15.40;;;9.27;;
47772;SDS011;33534;51.028;13.716;2023-02-22T06:05:33;17.70;;;10.68;;
47772;SDS011;33534;51.028;13.716;2023-02-22T06:08:01;17.88;;;11.00;;
47772;SDS011;33534;51.028;13.716;2023-02-22T06:10:27;17.00;;;10.50;;
47772;SDS011;33534;51.028;13.716;2023-02-22T06:12:54;19.60;;;10.55;;
47772;SDS011;33534;51.028;13.716;2023-02-22T06:15:21;18.83;;;10.65;;
47772;SDS011;33534;51.028;13.716;2023-02-22T06:17:47;22.40;;;12.48;;
47772;SDS011;33534;51.028;13.716;2023-02-22T06:20:15;24.95;;;10.65;;
47772;SDS011;33534;51.028;13.716;2023-02-22T06:22:42;21.13;;;10.48;;
47772;SDS011;33534;51.028;13.716;2023-02-22T06:25:12;22.88;;;11.18;;
47772;SDS011;33534;51.028;13.716;2023-02-22T06:27:38;23.48;;;12.77;;
47772;SDS011;33534;51.028;13.716;2023-02-22T06:30:04;22.02;;;12.90;;
47772;SDS011;33534;51.028;13.716;2023-02-22T06:32:30;20.55;;;12.00;;
47772;SDS011;33534;51.028;13.716;2023-02-22T06:34:56;24.40;;;11.23;;
47772;SDS011;33534;51.028;13.716;2023-02-22T06:37:22;18.52;;;10.27;;
47772;SDS011;33534;51.028;13.716;2023-02-22T06:39:48;19.50;;;11.73;;
47772;SDS011;33534;51.028;13.716;2023-02-22T06:42:14;19.00;;;12.00;;
47772;SDS011;33534;51.028;13.716;2023-02-22T06:44:40;18.27;;;11.93;;
47772;SDS011;33534;51.028;13.716;2023-02-22T06:47:06;21.83;;;11.07;;
47772;SDS011;33534;51.028;13.716;2023-02-22T06:49:32;15.23;;;10.93;;
47772;SDS011;33534;51.028;13.716;2023-02-22T06:51:58;19.20;;;12.85;;
47772;SDS011;33534;51.028;13.716;2023-02-22T06:54:24;17.70;;;11.40;;
47772;SDS011;33534;51.028;13.716;2023-02-22T06:56:51;17.80;;;11.48;;
47772;SDS011;33534;51.028;13.716;2023-02-22T06:59:17;20.00;;;13.40;;
47772;SDS011;33534;51.028;13.716;2023-02-22T07:01:43;22.48;;;11.93;;
47772;SDS011;33534;51.028;13.716;2023-02-22T07:04:09;17.83;;;11.07;;
47772;SDS011;33534;51.028;13.716;2023-02-22T07:06:35;17.38;;;11.35;;
47772;SDS011;33534;51.028;13.716;2023-02-22T07:09:02;21.55;;;11.32;;
47772;SDS011;33534;51.028;13.716;2023-02-22T07:11:28;22.98;;;11.55;;
47772;SDS011;33534;51.028;13.716;2023-02-22T07:13:54;18.38;;;10.95;;
47772;SDS011;33534;51.028;13.716;2023-02-22T07:16:20;17.45;;;10.70;;
47772;SDS011;33534;51.028;13.716;2023-02-22T07:18:47;18.67;;;11.55;;
47772;SDS011;33534;51.028;13.716;2023-02-22T07:21:13;16.63;;;9.93;;
47772;SDS011;33534;51.028;13.716;2023-02-22T07:23:39;19.63;;;12.55;;
47772;SDS011;33534;51.028;13.716;2023-02-22T07:26:05;16.75;;;10.93;;
47772;SDS011;33534;51.028;13.716;2023-02-22T07:28:31;17.20;;;11.50;;
47772;SDS011;33534;51.028;13.716;2023-02-22T07:30:57;20.35;;;11.63;;
47772;SDS011;33534;51.028;13.716;2023-02-22T07:33:23;20.00;;;11.77;;
47772;SDS011;33534;51.028;13.716;2023-02-22T07:35:50;21.25;;;11.40;;
47772;SDS011;33534;51.028;13.716;2023-02-22T07:38:17;15.88;;;9.27;;
47772;SDS011;33534;51.028;13.716;2023-02-22T07:40:43;16.63;;;10.48;;
47772;SDS011;33534;51.028;13.716;2023-02-22T07:45:38;14.70;;;10.40;;
47772;SDS011;33534;51.028;13.716;2023-02-22T07:48:04;20.50;;;11.45;;
47772;SDS011;33534;51.028;13.716;2023-02-22T07:50:31;18.98;;;11.18;;
47772;SDS011;33534;51.028;13.716;2023-02-22T07:52:58;17.33;;;10.20;;
47772;SDS011;33534;51.028;13.716;2023-02-22T07:55:25;13.75;;;10.10;;
47772;SDS011;33534;51.028;13.716;2023-02-22T07:57:52;17.67;;;10.07;;
47772;SDS011;33534;51.028;13.716;2023-02-22T08:00:29;14.40;;;10.07;;
47772;SDS011;33534;51.028;13.716;2023-02-22T08:02:56;20.95;;;10.38;;
47772;SDS011;33534;51.028;13.716;2023-02-22T08:05:23;20.73;;;10.80;;
47772;SDS011;33534;51.028;13.716;2023-02-22T08:07:49;18.50;;;12.07;;
47772;SDS011;33534;51.028;13.716;2023-02-22T08:10:16;19.63;;;11.48;;
47772;SDS011;33534;51.028;13.716;2023-02-22T08:12:43;19.38;;;11.75;;
47772;SDS011;33534;51.028;13.716;2023-02-22T08:15:14;21.65;;;13.10;;
47772;SDS011;33534;51.028;13.716;2023-02-22T08:17:40;22.73;;;12.60;;
47772;SDS011;33534;51.028;13.716;2023-02-22T08:20:06;17.08;;;11.35;;
47772;SDS011;33534;51.028;13.716;2023-02-22T08:22:32;21.80;;;10.93;;
47772;SDS011;33534;51.028;13.716;2023-02-22T08:24:58;20.70;;;12.00;;
47772;SDS011;33534;51.028;13.716;2023-02-22T08:27:26;19.75;;;12.27;;
47772;SDS011;33534;51.028;13.716;2023-02-22T08:29:52;19.77;;;12.35;;
47772;SDS011;33534;51.028;13.716;2023-02-22T08:32:18;19.50;;;12.27;;
47772;SDS011;33534;51.028;13.716;2023-02-22T08:34:44;23.17;;;12.35;;
47772;SDS011;33534;51.028;13.716;2023-02-22T08:37:10;21.88;;;12.48;;
47772;SDS011;33534;51.028;13.716;2023-02-22T08:39:37;19.95;;;12.43;;
47772;SDS011;33534;51.028;13.716;2023-02-22T08:42:03;21.02;;;13.70;;
47772;SDS011;33534;51.028;13.716;2023-02-22T08:44:29;24.00;;;12.35;;
47772;SDS011;33534;51.028;13.716;2023-02-22T08:46:55;21.08;;;12.88;;
47772;SDS011;33534;51.028;13.716;2023-02-22T08:49:22;23.40;;;13.20;;
47772;SDS011;33534;51.028;13.716;2023-02-22T08:51:48;18.63;;;11.50;;
47772;SDS011;33534;51.028;13.716;2023-02-22T08:54:14;24.75;;;12.45;;
47772;SDS011;33534;51.028;13.716;2023-02-22T08:56:42;19.02;;;12.00;;
47772;SDS011;33534;51.028;13.716;2023-02-22T08:59:08;23.65;;;12.40;;
47772;SDS011;33534;51.028;13.716;2023-02-22T09:01:34;20.00;;;11.90;;
47772;SDS011;33534;51.028;13.716;2023-02-22T09:04:00;20.23;;;11.77;;
47772;SDS011;33534;51.028;13.716;2023-02-22T09:06:27;21.27;;;12.60;;
47772;SDS011;33534;51.028;13.716;2023-02-22T09:08:53;18.67;;;11.55;;
47772;SDS011;33534;51.028;13.716;2023-02-22T09:11:19;17.67;;;11.77;;
47772;SDS011;33534;51.028;13.716;2023-02-22T09:13:46;16.95;;;10.75;;
47772;SDS011;33534;51.028;13.716;2023-02-22T09:16:12;16.08;;;10.48;;
47772;SDS011;33534;51.028;13.716;2023-02-22T09:18:38;12.98;;;9.48;;
47772;SDS011;33534;51.028;13.716;2023-02-22T09:21:04;16.92;;;10.65;;
47772;SDS011;33534;51.028;13.716;2023-02-22T09:23:30;13.02;;;9.85;;
47772;SDS011;33534;51.028;13.716;2023-02-22T09:25:56;12.82;;;9.82;;
47772;SDS011;33534;51.028;13.716;2023-02-22T09:28:27;17.92;;;10.65;;
47772;SDS011;33534;51.028;13.716;2023-02-22T09:30:54;13.23;;;9.77;;
47772;SDS011;33534;51.028;13.716;2023-02-22T09:33:20;15.00;;;9.75;;
47772;SDS011;33534;51.028;13.716;2023-02-22T09:35:47;13.95;;;9.73;;
47772;SDS011;33534;51.028;13.716;2023-02-22T09:38:21;18.17;;;10.75;;
47772;SDS011;33534;51.028;13.716;2023-02-22T09:40:49;15.73;;;10.18;;
47772;SDS011;33534;51.028;13.716;2023-02-22T09:48:12;16.63;;;10.35;;
47772;SDS011;33534;51.028;13.716;2023-02-22T09:50:40;15.95;;;10.05;;
47772;SDS011;33534;51.028;13.716;2023-02-22T09:53:19;15.48;;;10.70;;
47772;SDS011;33534;51.028;13.716;2023-02-22T09:55:53;16.73;;;10.77;;
47772;SDS011;33534;51.028;13.716;2023-02-22T09:58:23;17.20;;;11.00;;
47772;SDS011;33534;51.028;13.716;2023-02-22T10:00:50;14.90;;;10.40;;
47772;SDS011;33534;51.028;13.716;2023-02-22T10:03:32;17.55;;;10.52;;
47772;SDS011;33534;51.028;13.716;2023-02-22T10:06:00;13.88;;;10.05;;
47772;SDS011;33534;51.028;13.716;2023-02-22T10:08:29;16.83;;;11.60;;
47772;SDS011;33534;51.028;13.716;2023-02-22T10:16:24;17.27;;;11.88;;
47772;SDS011;33534;51.028;13.716;2023-02-22T10:26:29;18.85;;;10.88;;
47772;SDS011;33534;51.028;13.716;2023-02-22T10:28:59;18.83;;;11.82;;
47772;SDS011;33534;51.028;13.716;2023-02-22T10:31:26;14.25;;;10.30;;
47772;SDS011;33534;51.028;13.716;2023-02-22T10:33:57;17.63;;;10.90;;
47772;SDS011;33534;51.028;13.716;2023-02-22T10:36:24;14.60;;;9.63;;
47772;SDS011;33534;51.028;13.716;2023-02-22T10:38:55;15.45;;;9.98;;
47772;SDS011;33534;51.028;13.716;2023-02-22T10:41:30;15.80;;;10.18;;
47772;SDS011;33534;51.028;13.716;2023-02-22T10:43:56;17.48;;;10.23;;
47772;SDS011;33534;51.028;13.716;2023-02-22T10:46:26;19.83;;;10.55;;
47772;SDS011;33534;51.028;13.716;2023-02-22T10:48:53;15.55;;;9.38;;
47772;SDS011;33534;51.028;13.716;2023-02-22T10:51:21;14.90;;;9.93;;
47772;SDS011;33534;51.028;13.716;2023-02-22T10:53:58;15.68;;;10.20;;
47772;SDS011;33534;51.028;13.716;2023-02-22T10:56:26;15.40;;;10.10;;
47772;SDS011;33534;51.028;13.716;2023-02-22T11:06:26;13.30;;;8.77;;
47772;SDS011;33534;51.028;13.716;2023-02-22T11:09:02;15.35;;;9.13;;
47772;SDS011;33534;51.028;13.716;2023-02-22T11:11:28;15.23;;;9.07;;
47772;SDS011;33534;51.028;13.716;2023-02-22T11:13:55;18.27;;;10.18;;
47772;SDS011;33534;51.028;13.716;2023-02-22T11:21:42;13.52;;;9.90;;
47772;SDS011;33534;51.028;13.716;2023-02-22T11:24:09;13.80;;;9.23;;
47772;SDS011;33534;51.028;13.716;2023-02-22T11:26:37;12.85;;;9.20;;
47772;SDS011;33534;51.028;13.716;2023-02-22T11:29:37;15.13;;;9.10;;
47772;SDS011;33534;51.028;13.716;2023-02-22T11:31:57;11.68;;;8.80;;
47772;SDS011;33534;51.028;13.716;2023-02-22T11:34:28;13.38;;;8.55;;
47772;SDS011;33534;51.028;13.716;2023-02-22T11:36:55;13.40;;;8.65;;
47772;SDS011;33534;51.028;13.716;2023-02-22T11:39:26;11.57;;;7.88;;
47772;SDS011;33534;51.028;13.716;2023-02-22T11:41:54;9.38;;;7.20;;
47772;SDS011;33534;51.028;13.716;2023-02-22T11:46:49;9.90;;;7.38;;
47772;SDS011;33534;51.028;13.716;2023-02-22T11:49:19;7.93;;;6.45;;
47772;SDS011;33534;51.028;13.716;2023-02-22T11:57:13;9.35;;;7.03;;
47772;SDS011;33534;51.028;13.716;2023-02-22T11:59:44;6.63;;;5.88;;
47772;SDS011;33534;51.028;13.716;2023-02-22T12:02:34;6.22;;;5.13;;
47772;SDS011;33534;51.028;13.716;2023-02-22T12:15:54;9.38;;;5.63;;
47772;SDS011;33534;51.028;13.716;2023-02-22T12:20:57;7.32;;;5.50;;
47772;SDS011;33534;51.028;13.716;2023-02-22T12:28:28;9.68;;;5.55;;
47772;SDS011;33534;51.028;13.716;2023-02-22T12:31:07;8.45;;;5.45;;
47772;SDS011;33534;51.028;13.716;2023-02-22T12:33:44;6.85;;;4.65;;
47772;SDS011;33534;51.028;13.716;2023-02-22T12:36:12;7.60;;;5.28;;
47772;SDS011;33534;51.028;13.716;2023-02-22T12:38:39;8.32;;;5.47;;
47772;SDS011;33534;51.028;13.716;2023-02-22T12:48:59;6.82;;;5.13;;
47772;SDS011;33534;51.028;13.716;2023-02-22T12:54:09;5.63;;;4.80;;
47772;SDS011;33534;51.028;13.716;2023-02-22T12:59:13;6.05;;;5.03;;
47772;SDS011;33534;51.028;13.716;2023-02-22T13:01:44;5.43;;;4.55;;
47772;SDS011;33534;51.028;13.716;2023-02-22T13:04:11;6.65;;;4.13;;
47772;SDS011;33534;51.028;13.716;2023-02-22T13:11:35;6.30;;;4.70;;
47772;SDS011;33534;51.028;13.716;2023-02-22T13:16:46;4.95;;;4.53;;
47772;SDS011;33534;51.028;13.716;2023-02-22T13:19:25;8.25;;;5.20;;
47772;SDS011;33534;51.028;13.716;2023-02-22T13:21:57;7.07;;;5.00;;
47772;SDS011;33534;51.028;13.716;2023-02-22T13:27:21;6.47;;;5.10;;
47772;SDS011;33534;51.028;13.716;2023-02-22T13:29:51;6.90;;;5.13;;
47772;SDS011;33534;51.028;13.716;2023-02-22T13:51:08;6.05;;;5.05;;
47772;SDS011;33534;51.028;13.716;2023-02-22T13:53:55;7.65;;;4.80;;
47772;SDS011;33534;51.028;13.716;2023-02-22T13:56:23;12.75;;;5.70;;
47772;SDS011;33534;51.028;13.716;2023-02-22T13:58:50;4.70;;;4.10;;
47772;SDS011;33534;51.028;13.716;2023-02-22T14:06:47;5.07;;;4.00;;
47772;SDS011;33534;51.028;13.716;2023-02-22T14:12:02;5.88;;;4.18;;
47772;SDS011;33534;51.028;13.716;2023-02-22T14:14:28;5.88;;;3.97;;
47772;SDS011;33534;51.028;13.716;2023-02-22T14:19:39;5.55;;;4.25;;
47772;SDS011;33534;51.028;13.716;2023-02-22T14:22:05;5.80;;;4.47;;
47772;SDS011;33534;51.028;13.716;2023-02-22T14:24:43;5.70;;;4.38;;
47772;SDS011;33534;51.028;13.716;2023-02-22T14:27:10;6.78;;;4.57;;
47772;SDS011;33534;51.028;13.716;2023-02-22T14:29:36;10.50;;;4.45;;
47772;SDS011;33534;51.028;13.716;2023-02-22T14:32:06;5.38;;;4.13;;
47772;SDS011;33534;51.028;13.716;2023-02-22T14:34:42;4.90;;;4.13;;
47772;SDS011;33534;51.028;13.716;2023-02-22T14:37:27;5.97;;;4.03;;
47772;SDS011;33534;51.028;13.716;2023-02-22T14:39:57;8.43;;;4.70;;
47772;SDS011;33534;51.028;13.716;2023-02-22T14:42:31;6.47;;;4.30;;
47772;SDS011;33534;51.028;13.716;2023-02-22T14:45:02;7.32;;;4.65;;
47772;SDS011;33534;51.028;13.716;2023-02-22T14:47:31;5.35;;;4.30;;
47772;SDS011;33534;51.028;13.716;2023-02-22T14:50:26;6.35;;;4.95;;
47772;SDS011;33534;51.028;13.716;2023-02-22T14:55:43;6.15;;;4.88;;
47772;SDS011;33534;51.028;13.716;2023-02-22T14:58:14;4.57;;;4.15;;
47772;SDS011;33534;51.028;13.716;2023-02-22T15:00:44;7.28;;;4.90;;
47772;SDS011;33534;51.028;13.716;2023-02-22T15:03:18;7.32;;;4.65;;
47772;SDS011;33534;51.028;13.716;2023-02-22T15:05:51;6.85;;;4.40;;
47772;SDS011;33534;51.028;13.716;2023-02-22T15:08:17;7.93;;;4.78;;
47772;SDS011;33534;51.028;13.716;2023-02-22T15:10:52;20.55;;;5.43;;
47772;SDS011;33534;51.028;13.716;2023-02-22T15:13:25;9.52;;;4.97;;
47772;SDS011;33534;51.028;13.716;2023-02-22T15:15:58;5.55;;;4.40;;
47772;SDS011;33534;51.028;13.716;2023-02-22T15:21:05;5.65;;;3.90;;
47772;SDS011;33534;51.028;13.716;2023-02-22T15:23:39;5.85;;;4.32;;
47772;SDS011;33534;51.028;13.716;2023-02-22T15:26:05;4.70;;;4.00;;
47772;SDS011;33534;51.028;13.716;2023-02-22T15:28:32;3.97;;;3.45;;
47772;SDS011;33534;51.028;13.716;2023-02-22T15:31:16;5.55;;;4.10;;
47772;SDS011;33534;51.028;13.716;2023-02-22T15:33:43;6.07;;;4.10;;
47772;SDS011;33534;51.028;13.716;2023-02-22T15:36:12;10.75;;;6.13;;
47772;SDS011;33534;51.028;13.716;2023-02-22T15:38:39;12.13;;;8.15;;
47772;SDS011;33534;51.028;13.716;2023-02-22T15:41:07;21.10;;;9.95;;
47772;SDS011;33534;51.028;13.716;2023-02-22T15:43:33;14.05;;;9.43;;
47772;SDS011;33534;51.028;13.716;2023-02-22T15:45:59;12.82;;;9.18;;
47772;SDS011;33534;51.028;13.716;2023-02-22T15:48:27;14.98;;;8.65;;
47772;SDS011;33534;51.028;13.716;2023-02-22T15:51:02;14.20;;;9.50;;
47772;SDS011;33534;51.028;13.716;2023-02-22T15:53:33;14.88;;;9.57;;
47772;SDS011;33534;51.028;13.716;2023-02-22T15:56:01;9.82;;;7.07;;
47772;SDS011;33534;51.028;13.716;2023-02-22T15:58:30;14.05;;;8.75;;
47772;SDS011;33534;51.028;13.716;2023-02-22T16:01:00;15.35;;;9.30;;
47772;SDS011;33534;51.028;13.716;2023-02-22T16:03:31;16.30;;;9.98;;
47772;SDS011;33534;51.028;13.716;2023-02-22T16:06:02;14.90;;;9.88;;
47772;SDS011;33534;51.028;13.716;2023-02-22T16:11:02;15.15;;;9.48;;
47772;SDS011;33534;51.028;13.716;2023-02-22T16:13:32;16.02;;;9.98;;
47772;SDS011;33534;51.028;13.716;2023-02-22T16:16:18;17.88;;;10.48;;
47772;SDS011;33534;51.028;13.716;2023-02-22T16:18:46;16.33;;;10.68;;
47772;SDS011;33534;51.028;13.716;2023-02-22T16:21:16;15.27;;;10.50;;
47772;SDS011;33534;51.028;13.716;2023-02-22T16:28:48;17.38;;;11.02;;
47772;SDS011;33534;51.028;13.716;2023-02-22T16:31:18;19.70;;;12.45;;
47772;SDS011;33534;51.028;13.716;2023-02-22T16:33:45;18.05;;;11.20;;
47772;SDS011;33534;51.028;13.716;2023-02-22T16:36:12;19.58;;;12.18;;
47772;SDS011;33534;51.028;13.716;2023-02-22T16:38:38;22.00;;;11.68;;
47772;SDS011;33534;51.028;13.716;2023-02-22T16:41:07;15.98;;;10.77;;
47772;SDS011;33534;51.028;13.716;2023-02-22T16:43:33;17.00;;;11.68;;
47772;SDS011;33534;51.028;13.716;2023-02-22T16:46:00;20.63;;;12.27;;
47772;SDS011;33534;51.028;13.716;2023-02-22T16:48:27;17.02;;;11.23;;
47772;SDS011;33534;51.028;13.716;2023-02-22T16:50:54;18.20;;;11.68;;
47772;SDS011;33534;51.028;13.716;2023-02-22T16:53:22;18.08;;;11.38;;
47772;SDS011;33534;51.028;13.716;2023-02-22T16:55:49;25.90;;;11.93;;
47772;SDS011;33534;51.028;13.716;2023-02-22T16:58:21;17.60;;;11.52;;
47772;SDS011;33534;51.028;13.716;2023-02-22T17:00:51;22.58;;;11.15;;
47772;SDS011;33534;51.028;13.716;2023-02-22T17:03:17;16.63;;;11.55;;
47772;SDS011;33534;51.028;13.716;2023-02-22T17:05:43;18.55;;;12.15;;
47772;SDS011;33534;51.028;13.716;2023-02-22T17:08:09;23.30;;;13.13;;
47772;SDS011;33534;51.028;13.716;2023-02-22T17:10:35;21.70;;;12.50;;
47772;SDS011;33534;51.028;13.716;2023-02-22T17:13:01;24.05;;;13.88;;